sensor_id;sensor_type;location;lat;lon;timestamp;pressure;altitude;pressure_sealevel;temperature;humidity
65013;BME280;51715;39.432;-77.518;2023-04-19T00:00:40;99062.60;;;18.21;20.57
65013;BME280;51715;39.432;-77.518;2023-04-19T00:03:10;99062.96;;;18.11;20.62
65013;BME280;51715;39.432;-77.518;2023-04-19T00:05:39;99066.54;;;17.98;20.74
65013;BME280;51715;39.432;-77.518;2023-04-19T00:08:07;99070.71;;;17.80;21.05
65013;BME280;51715;39.432;-77.518;2023-04-19T00:10:34;99077.57;;;17.03;22.42
65013;BME280;51715;39.432;-77.518;2023-04-19T00:13:03;99083.62;;;16.95;22.79
65013;BME280;51715;39.432;-77.518;2023-04-19T00:15:32;99094.11;;;16.75;22.45
65013;BME280;51715;39.432;-77.518;2023-04-19T00:18:00;99103.70;;;16.97;22.62
65013;BME280;51715;39.432;-77.518;2023-04-19T00:20:28;99109.98;;;15.88;24.53
65013;BME280;51715;39.432;-77.518;2023-04-19T00:22:56;99116.12;;;16.09;24.48
65013;BME280;51715;39.432;-77.518;2023-04-19T00:25:26;99122.33;;;15.48;24.31
65013;BME280;51715;39.432;-77.518;2023-04-19T00:27:54;99125.19;;;15.82;24.39
65013;BME280;51715;39.432;-77.518;2023-04-19T00:30:22;99130.38;;;15.79;24.47
65013;BME280;51715;39.432;-77.518;2023-04-19T00:32:50;99138.87;;;15.86;24.43
65013;BME280;51715;39.432;-77.518;2023-04-19T00:35:18;99145.38;;;15.92;23.97
65013;BME280;51715;39.432;-77.518;2023-04-19T00:37:48;99151.36;;;15.93;24.85
65013;BME280;51715;39.432;-77.518;2023-04-19T00:40:16;99156.00;;;15.50;25.68
65013;BME280;51715;39.432;-77.518;2023-04-19T00:42:44;99159.93;;;14.89;26.55
65013;BME280;51715;39.432;-77.518;2023-04-19T00:45:13;99167.05;;;14.78;26.25
65013;BME280;51715;39.432;-77.518;2023-04-19T00:47:42;99174.67;;;14.94;26.57
65013;BME280;51715;39.432;-77.518;2023-04-19T00:50:12;99176.48;;;14.60;26.54
65013;BME280;51715;39.432;-77.518;2023-04-19T00:52:40;99183.92;;;14.36;26.52
65013;BME280;51715;39.432;-77.518;2023-04-19T00:55:09;99190.73;;;14.67;26.63
65013;BME280;51715;39.432;-77.518;2023-04-19T00:57:38;99193.79;;;14.37;28.43
65013;BME280;51715;39.432;-77.518;2023-04-19T01:00:07;99200.62;;;14.25;27.85
65013;BME280;51715;39.432;-77.518;2023-04-19T01:02:37;99208.82;;;14.08;27.94
65013;BME280;51715;39.432;-77.518;2023-04-19T01:05:06;99220.15;;;14.16;28.03
65013;BME280;51715;39.432;-77.518;2023-04-19T01:07:35;99234.66;;;13.91;28.94
65013;BME280;51715;39.432;-77.518;2023-04-19T01:10:05;99234.85;;;14.12;28.13
65013;BME280;51715;39.432;-77.518;2023-04-19T01:12:35;99239.42;;;14.33;27.37
65013;BME280;51715;39.432;-77.518;2023-04-19T01:15:04;99240.38;;;14.03;27.62
65013;BME280;51715;39.432;-77.518;2023-04-19T01:17:33;99248.03;;;14.26;28.05
65013;BME280;51715;39.432;-77.518;2023-04-19T01:20:02;99250.64;;;13.90;27.76
65013;BME280;51715;39.432;-77.518;2023-04-19T01:22:31;99253.38;;;14.19;27.29
65013;BME280;51715;39.432;-77.518;2023-04-19T01:24:59;99260.26;;;14.23;27.22
65013;BME280;51715;39.432;-77.518;2023-04-19T01:27:28;99275.76;;;14.26;27.44
65013;BME280;51715;39.432;-77.518;2023-04-19T01:29:57;99279.24;;;14.07;27.23
65013;BME280;51715;39.432;-77.518;2023-04-19T01:32:25;99288.58;;;14.37;26.74
65013;BME280;51715;39.432;-77.518;2023-04-19T01:34:53;99298.43;;;14.35;26.40
65013;BME280;51715;39.432;-77.518;2023-04-19T01:37:22;99298.55;;;14.44;26.98
65013;BME280;51715;39.432;-77.518;2023-04-19T01:39:50;99302.40;;;12.58;30.48
65013;BME280;51715;39.432;-77.518;2023-04-19T01:42:19;99301.90;;;13.13;28.79
65013;BME280;51715;39.432;-77.518;2023-04-19T01:44:47;99308.75;;;13.30;28.12
65013;BME280;51715;39.432;-77.518;2023-04-19T01:47:16;99314.71;;;13.34;28.17
65013;BME280;51715;39.432;-77.518;2023-04-19T01:49:44;99321.56;;;13.78;27.09
65013;BME280;51715;39.432;-77.518;2023-04-19T01:52:13;99328.09;;;13.97;27.31
65013;BME280;51715;39.432;-77.518;2023-04-19T01:54:42;99330.86;;;13.39;27.27
65013;BME280;51715;39.432;-77.518;2023-04-19T01:57:10;99337.28;;;13.27;27.43
65013;BME280;51715;39.432;-77.518;2023-04-19T01:59:39;99346.05;;;12.42;28.29
65013;BME280;51715;39.432;-77.518;2023-04-19T02:02:08;99344.24;;;12.67;28.17
65013;BME280;51715;39.432;-77.518;2023-04-19T02:04:37;99352.98;;;12.55;27.45
65013;BME280;51715;39.432;-77.518;2023-04-19T02:07:06;99355.66;;;12.81;27.90
65013;BME280;51715;39.432;-77.518;2023-04-19T02:09:36;99360.00;;;12.52;28.32
65013;BME280;51715;39.432;-77.518;2023-04-19T02:12:05;99364.80;;;12.47;28.19
65013;BME280;51715;39.432;-77.518;2023-04-19T02:14:35;99368.67;;;12.12;27.96
65013;BME280;51715;39.432;-77.518;2023-04-19T02:17:05;99374.68;;;12.60;27.74
65013;BME280;51715;39.432;-77.518;2023-04-19T02:19:33;99378.13;;;12.80;26.81
65013;BME280;51715;39.432;-77.518;2023-04-19T02:22:02;99380.34;;;12.75;27.04
65013;BME280;51715;39.432;-77.518;2023-04-19T02:24:31;99384.14;;;12.48;26.81
65013;BME280;51715;39.432;-77.518;2023-04-19T02:26:59;99384.13;;;12.36;26.91
65013;BME280;51715;39.432;-77.518;2023-04-19T02:29:28;99393.11;;;10.59;30.14
65013;BME280;51715;39.432;-77.518;2023-04-19T02:31:56;99397.36;;;10.92;31.05
65013;BME280;51715;39.432;-77.518;2023-04-19T02:34:26;99404.42;;;11.48;29.99
65013;BME280;51715;39.432;-77.518;2023-04-19T02:36:54;99405.31;;;11.60;28.71
65013;BME280;51715;39.432;-77.518;2023-04-19T02:39:23;99413.29;;;10.64;29.81
65013;BME280;51715;39.432;-77.518;2023-04-19T02:41:52;99419.91;;;11.03;29.18
65013;BME280;51715;39.432;-77.518;2023-04-19T02:44:20;99420.14;;;11.38;28.37
65013;BME280;51715;39.432;-77.518;2023-04-19T02:46:48;99419.49;;;11.48;29.29
65013;BME280;51715;39.432;-77.518;2023-04-19T02:49:19;99426.33;;;11.28;28.49
65013;BME280;51715;39.432;-77.518;2023-04-19T02:51:49;99417.79;;;10.91;28.88
65013;BME280;51715;39.432;-77.518;2023-04-19T02:54:18;99423.84;;;11.63;28.38
65013;BME280;51715;39.432;-77.518;2023-04-19T02:56:47;99426.81;;;11.20;28.44
65013;BME280;51715;39.432;-77.518;2023-04-19T02:59:15;99437.05;;;11.12;28.09
65013;BME280;51715;39.432;-77.518;2023-04-19T03:01:44;99438.43;;;10.52;29.54
65013;BME280;51715;39.432;-77.518;2023-04-19T03:04:12;99441.02;;;9.68;30.71
65013;BME280;51715;39.432;-77.518;2023-04-19T03:06:40;99435.76;;;9.79;31.08
65013;BME280;51715;39.432;-77.518;2023-04-19T03:09:09;99442.85;;;10.28;30.40
65013;BME280;51715;39.432;-77.518;2023-04-19T03:11:38;99442.96;;;10.05;30.54
65013;BME280;51715;39.432;-77.518;2023-04-19T03:14:07;99445.91;;;10.14;29.92
65013;BME280;51715;39.432;-77.518;2023-04-19T03:16:36;99449.78;;;10.03;30.20
65013;BME280;51715;39.432;-77.518;2023-04-19T03:19:05;99445.53;;;9.75;30.85
65013;BME280;51715;39.432;-77.518;2023-04-19T03:21:32;99450.13;;;10.71;29.34
65013;BME280;51715;39.432;-77.518;2023-04-19T03:24:01;99452.83;;;9.40;30.39
65013;BME280;51715;39.432;-77.518;2023-04-19T03:26:30;99456.13;;;9.68;29.88
65013;BME280;51715;39.432;-77.518;2023-04-19T03:28:58;99465.24;;;9.80;29.76
65013;BME280;51715;39.432;-77.518;2023-04-19T03:31:27;99468.99;;;10.17;30.16
65013;BME280;51715;39.432;-77.518;2023-04-19T03:33:56;99477.97;;;9.43;30.41
65013;BME280;51715;39.432;-77.518;2023-04-19T03:36:24;99475.91;;;10.07;29.98
65013;BME280;51715;39.432;-77.518;2023-04-19T03:38:52;99482.97;;;9.71;31.00
65013;BME280;51715;39.432;-77.518;2023-04-19T03:41:21;99491.12;;;10.23;29.48
65013;BME280;51715;39.432;-77.518;2023-04-19T03:43:50;99497.13;;;11.02;28.24
65013;BME280;51715;39.432;-77.518;2023-04-19T03:46:18;99500.73;;;10.64;29.16
65013;BME280;51715;39.432;-77.518;2023-04-19T03:48:46;99503.90;;;10.17;28.97
65013;BME280;51715;39.432;-77.518;2023-04-19T03:51:14;99502.96;;;10.82;28.44
65013;BME280;51715;39.432;-77.518;2023-04-19T03:53:43;99503.19;;;11.05;28.40
65013;BME280;51715;39.432;-77.518;2023-04-19T03:56:12;99507.06;;;11.11;27.76
65013;BME280;51715;39.432;-77.518;2023-04-19T03:58:40;99505.81;;;11.34;27.43
65013;BME280;51715;39.432;-77.518;2023-04-19T04:03:59;99501.76;;;11.28;27.00
65013;BME280;51715;39.432;-77.518;2023-04-19T04:06:27;99504.43;;;11.73;26.43
65013;BME280;51715;39.432;-77.518;2023-04-19T04:08:55;99508.71;;;11.71;26.58
65013;BME280;51715;39.432;-77.518;2023-04-19T04:11:23;99515.85;;;11.48;27.14
65013;BME280;51715;39.432;-77.518;2023-04-19T04:13:51;99513.88;;;11.10;27.15
65013;BME280;51715;39.432;-77.518;2023-04-19T04:16:19;99514.69;;;11.67;27.11
65013;BME280;51715;39.432;-77.518;2023-04-19T04:18:47;99515.06;;;11.49;27.71
65013;BME280;51715;39.432;-77.518;2023-04-19T04:21:16;99518.82;;;11.44;27.07
65013;BME280;51715;39.432;-77.518;2023-04-19T04:23:44;99519.62;;;11.69;27.41
65013;BME280;51715;39.432;-77.518;2023-04-19T04:26:12;99521.01;;;11.58;27.72
65013;BME280;51715;39.432;-77.518;2023-04-19T04:28:40;99525.95;;;11.55;27.81
65013;BME280;51715;39.432;-77.518;2023-04-19T04:31:08;99533.64;;;11.12;28.28
65013;BME280;51715;39.432;-77.518;2023-04-19T04:33:36;99532.69;;;10.23;29.69
65013;BME280;51715;39.432;-77.518;2023-04-19T04:36:05;99534.73;;;10.28;30.48
65013;BME280;51715;39.432;-77.518;2023-04-19T04:38:33;99534.41;;;10.73;29.43
65013;BME280;51715;39.432;-77.518;2023-04-19T04:41:02;99537.63;;;10.75;29.63
65013;BME280;51715;39.432;-77.518;2023-04-19T04:43:31;99531.80;;;10.79;28.31
65013;BME280;51715;39.432;-77.518;2023-04-19T04:45:59;99534.33;;;11.09;28.88
65013;BME280;51715;39.432;-77.518;2023-04-19T04:48:27;99533.71;;;10.92;28.23
65013;BME280;51715;39.432;-77.518;2023-04-19T04:50:56;99535.61;;;11.14;28.34
65013;BME280;51715;39.432;-77.518;2023-04-19T04:53:25;99535.03;;;10.83;28.25
65013;BME280;51715;39.432;-77.518;2023-04-19T04:55:54;99539.11;;;11.30;27.31
65013;BME280;51715;39.432;-77.518;2023-04-19T04:58:22;99537.72;;;11.47;27.43
65013;BME280;51715;39.432;-77.518;2023-04-19T05:00:50;99547.55;;;11.01;28.23
65013;BME280;51715;39.432;-77.518;2023-04-19T05:03:18;99551.30;;;11.35;28.37
65013;BME280;51715;39.432;-77.518;2023-04-19T05:05:46;99556.53;;;11.43;27.91
65013;BME280;51715;39.432;-77.518;2023-04-19T05:08:14;99561.78;;;11.09;28.56
65013;BME280;51715;39.432;-77.518;2023-04-19T05:10:43;99562.28;;;10.95;28.63
65013;BME280;51715;39.432;-77.518;2023-04-19T05:13:11;99561.91;;;11.19;28.45
65013;BME280;51715;39.432;-77.518;2023-04-19T05:15:39;99567.56;;;10.87;28.38
65013;BME280;51715;39.432;-77.518;2023-04-19T05:18:09;99565.60;;;10.96;28.79
65013;BME280;51715;39.432;-77.518;2023-04-19T05:20:37;99573.31;;;10.55;28.62
65013;BME280;51715;39.432;-77.518;2023-04-19T05:23:06;99575.12;;;10.88;28.22
65013;BME280;51715;39.432;-77.518;2023-04-19T05:25:34;99575.72;;;10.60;28.81
65013;BME280;51715;39.432;-77.518;2023-04-19T05:28:03;99576.61;;;10.59;29.02
65013;BME280;51715;39.432;-77.518;2023-04-19T05:30:32;99574.85;;;10.92;29.36
65013;BME280;51715;39.432;-77.518;2023-04-19T05:33:01;99575.93;;;11.00;29.31
65013;BME280;51715;39.432;-77.518;2023-04-19T05:35:30;99575.63;;;10.55;29.41
65013;BME280;51715;39.432;-77.518;2023-04-19T05:37:58;99577.00;;;10.86;28.70
65013;BME280;51715;39.432;-77.518;2023-04-19T05:40:26;99582.93;;;10.78;28.70
65013;BME280;51715;39.432;-77.518;2023-04-19T05:42:54;99580.22;;;10.74;29.93
65013;BME280;51715;39.432;-77.518;2023-04-19T05:45:21;99584.00;;;10.31;29.75
65013;BME280;51715;39.432;-77.518;2023-04-19T05:47:50;99588.11;;;10.47;29.86
65013;BME280;51715;39.432;-77.518;2023-04-19T05:50:18;99587.07;;;10.10;30.39
65013;BME280;51715;39.432;-77.518;2023-04-19T05:52:46;99582.42;;;10.28;30.42
65013;BME280;51715;39.432;-77.518;2023-04-19T05:55:14;99579.38;;;10.00;31.09
65013;BME280;51715;39.432;-77.518;2023-04-19T05:57:43;99578.63;;;10.27;30.69
65013;BME280;51715;39.432;-77.518;2023-04-19T06:00:12;99586.71;;;9.92;30.94
65013;BME280;51715;39.432;-77.518;2023-04-19T06:02:41;99585.84;;;9.93;30.23
65013;BME280;51715;39.432;-77.518;2023-04-19T06:05:10;99589.61;;;9.81;30.69
65013;BME280;51715;39.432;-77.518;2023-04-19T06:07:38;99585.11;;;9.81;31.28
65013;BME280;51715;39.432;-77.518;2023-04-19T06:10:07;99583.35;;;9.81;31.14
65013;BME280;51715;39.432;-77.518;2023-04-19T06:12:35;99585.41;;;9.90;31.18
65013;BME280;51715;39.432;-77.518;2023-04-19T06:15:05;99591.86;;;9.66;31.97
65013;BME280;51715;39.432;-77.518;2023-04-19T06:17:33;99590.13;;;8.86;32.78
65013;BME280;51715;39.432;-77.518;2023-04-19T06:20:02;99593.06;;;8.75;33.29
65013;BME280;51715;39.432;-77.518;2023-04-19T06:22:30;99592.74;;;8.70;32.91
65013;BME280;51715;39.432;-77.518;2023-04-19T06:24:58;99592.52;;;9.10;33.00
65013;BME280;51715;39.432;-77.518;2023-04-19T06:27:28;99592.05;;;8.96;33.20
65013;BME280;51715;39.432;-77.518;2023-04-19T06:29:56;99596.79;;;8.49;34.05
65013;BME280;51715;39.432;-77.518;2023-04-19T06:32:23;99598.18;;;8.58;34.08
65013;BME280;51715;39.432;-77.518;2023-04-19T06:34:51;99596.55;;;9.05;34.11
65013;BME280;51715;39.432;-77.518;2023-04-19T06:37:20;99589.66;;;8.74;34.69
65013;BME280;51715;39.432;-77.518;2023-04-19T06:39:48;99592.56;;;8.32;34.58
65013;BME280;51715;39.432;-77.518;2023-04-19T06:42:16;99597.26;;;8.41;34.28
65013;BME280;51715;39.432;-77.518;2023-04-19T06:44:45;99593.69;;;8.36;34.75
65013;BME280;51715;39.432;-77.518;2023-04-19T06:47:14;99596.10;;;8.20;35.03
65013;BME280;51715;39.432;-77.518;2023-04-19T06:49:42;99593.08;;;8.28;35.05
65013;BME280;51715;39.432;-77.518;2023-04-19T06:52:11;99593.54;;;7.62;36.12
65013;BME280;51715;39.432;-77.518;2023-04-19T06:54:39;99598.12;;;7.91;36.23
65013;BME280;51715;39.432;-77.518;2023-04-19T06:57:07;99596.28;;;7.63;36.12
65013;BME280;51715;39.432;-77.518;2023-04-19T06:59:35;99598.87;;;7.91;36.17
65013;BME280;51715;39.432;-77.518;2023-04-19T07:02:03;99603.07;;;7.83;35.61
65013;BME280;51715;39.432;-77.518;2023-04-19T07:04:33;99600.83;;;8.03;35.52
65013;BME280;51715;39.432;-77.518;2023-04-19T07:07:00;99597.96;;;8.04;35.74
65013;BME280;51715;39.432;-77.518;2023-04-19T07:09:29;99602.05;;;8.01;35.55
65013;BME280;51715;39.432;-77.518;2023-04-19T07:11:58;99602.99;;;7.75;35.91
65013;BME280;51715;39.432;-77.518;2023-04-19T07:14:26;99603.59;;;7.77;36.24
65013;BME280;51715;39.432;-77.518;2023-04-19T07:16:55;99603.04;;;7.73;36.46
65013;BME280;51715;39.432;-77.518;2023-04-19T07:19:23;99604.41;;;7.77;36.41
65013;BME280;51715;39.432;-77.518;2023-04-19T07:21:51;99605.18;;;7.96;36.22
65013;BME280;51715;39.432;-77.518;2023-04-19T07:24:20;99604.89;;;7.81;36.02
65013;BME280;51715;39.432;-77.518;2023-04-19T07:26:48;99603.93;;;7.87;36.14
65013;BME280;51715;39.432;-77.518;2023-04-19T07:29:16;99604.62;;;7.77;36.15
65013;BME280;51715;39.432;-77.518;2023-04-19T07:31:43;99607.98;;;7.80;36.14
65013;BME280;51715;39.432;-77.518;2023-04-19T07:34:12;99609.50;;;7.83;36.04
65013;BME280;51715;39.432;-77.518;2023-04-19T07:36:40;99610.59;;;7.86;35.86
65013;BME280;51715;39.432;-77.518;2023-04-19T07:39:09;99621.65;;;7.74;35.98
65013;BME280;51715;39.432;-77.518;2023-04-19T07:41:37;99625.61;;;7.87;36.02
65013;BME280;51715;39.432;-77.518;2023-04-19T07:44:05;99632.10;;;7.73;36.68
65013;BME280;51715;39.432;-77.518;2023-04-19T07:46:34;99633.74;;;7.39;36.61
65013;BME280;51715;39.432;-77.518;2023-04-19T07:49:02;99632.45;;;7.62;36.45
65013;BME280;51715;39.432;-77.518;2023-04-19T07:51:31;99642.74;;;7.55;36.78
65013;BME280;51715;39.432;-77.518;2023-04-19T07:53:59;99632.47;;;7.43;36.32
65013;BME280;51715;39.432;-77.518;2023-04-19T07:56:28;99640.26;;;7.34;36.99
65013;BME280;51715;39.432;-77.518;2023-04-19T07:58:56;99643.52;;;7.13;37.51
65013;BME280;51715;39.432;-77.518;2023-04-19T08:01:25;99643.59;;;7.45;37.30
65013;BME280;51715;39.432;-77.518;2023-04-19T08:03:53;99644.05;;;6.92;37.28
65013;BME280;51715;39.432;-77.518;2023-04-19T08:06:21;99649.67;;;7.29;37.24
65013;BME280;51715;39.432;-77.518;2023-04-19T08:08:49;99651.08;;;7.27;37.24
65013;BME280;51715;39.432;-77.518;2023-04-19T08:11:18;99652.39;;;7.31;37.18
65013;BME280;51715;39.432;-77.518;2023-04-19T08:13:46;99653.47;;;7.09;37.09
65013;BME280;51715;39.432;-77.518;2023-04-19T08:16:14;99653.93;;;7.30;37.06
65013;BME280;51715;39.432;-77.518;2023-04-19T08:18:43;99654.25;;;7.08;37.32
65013;BME280;51715;39.432;-77.518;2023-04-19T08:21:10;99655.56;;;7.32;37.28
65013;BME280;51715;39.432;-77.518;2023-04-19T08:23:39;99657.18;;;7.04;37.50
65013;BME280;51715;39.432;-77.518;2023-04-19T08:26:07;99661.23;;;7.04;37.63
65013;BME280;51715;39.432;-77.518;2023-04-19T08:28:36;99660.07;;;6.68;38.45
65013;BME280;51715;39.432;-77.518;2023-04-19T08:31:06;99667.67;;;6.96;37.95
65013;BME280;51715;39.432;-77.518;2023-04-19T08:33:34;99671.44;;;6.96;37.56
65013;BME280;51715;39.432;-77.518;2023-04-19T08:36:01;99671.70;;;6.66;37.96
65013;BME280;51715;39.432;-77.518;2023-04-19T08:38:30;99674.24;;;6.39;38.17
65013;BME280;51715;39.432;-77.518;2023-04-19T08:40:58;99675.16;;;6.69;38.02
65013;BME280;51715;39.432;-77.518;2023-04-19T08:43:29;99679.80;;;6.60;37.91
65013;BME280;51715;39.432;-77.518;2023-04-19T08:45:58;99684.51;;;6.83;38.11
65013;BME280;51715;39.432;-77.518;2023-04-19T08:48:26;99687.12;;;6.34;39.42
65013;BME280;51715;39.432;-77.518;2023-04-19T08:50:57;99693.55;;;5.95;39.39
65013;BME280;51715;39.432;-77.518;2023-04-19T08:53:28;99695.28;;;6.32;38.94
65013;BME280;51715;39.432;-77.518;2023-04-19T08:55:57;99695.14;;;6.42;38.97
65013;BME280;51715;39.432;-77.518;2023-04-19T08:58:25;99698.43;;;6.52;38.55
65013;BME280;51715;39.432;-77.518;2023-04-19T09:00:54;99697.56;;;6.52;38.69
65013;BME280;51715;39.432;-77.518;2023-04-19T09:03:22;99702.50;;;6.73;38.46
65013;BME280;51715;39.432;-77.518;2023-04-19T09:05:51;99704.57;;;6.39;38.86
65013;BME280;51715;39.432;-77.518;2023-04-19T09:08:22;99706.02;;;6.46;39.05
65013;BME280;51715;39.432;-77.518;2023-04-19T09:10:56;99709.59;;;6.40;39.02
65013;BME280;51715;39.432;-77.518;2023-04-19T09:13:26;99711.06;;;6.21;38.70
65013;BME280;51715;39.432;-77.518;2023-04-19T09:15:56;99716.27;;;6.39;39.05
65013;BME280;51715;39.432;-77.518;2023-04-19T09:18:24;99713.10;;;6.17;40.02
65013;BME280;51715;39.432;-77.518;2023-04-19T09:20:52;99718.78;;;5.83;40.78
65013;BME280;51715;39.432;-77.518;2023-04-19T09:23:20;99721.05;;;6.38;40.10
65013;BME280;51715;39.432;-77.518;2023-04-19T09:25:53;99722.16;;;6.02;39.43
65013;BME280;51715;39.432;-77.518;2023-04-19T09:28:20;99725.58;;;6.31;39.38
65013;BME280;51715;39.432;-77.518;2023-04-19T09:30:48;99728.41;;;6.47;38.90
65013;BME280;51715;39.432;-77.518;2023-04-19T09:33:34;99727.67;;;6.11;39.10
65013;BME280;51715;39.432;-77.518;2023-04-19T09:36:04;99733.06;;;6.20;39.44
65013;BME280;51715;39.432;-77.518;2023-04-19T09:38:45;99739.96;;;6.48;38.55
65013;BME280;51715;39.432;-77.518;2023-04-19T09:41:15;99735.21;;;5.66;40.49
65013;BME280;51715;39.432;-77.518;2023-04-19T09:43:43;99740.55;;;5.90;40.10
65013;BME280;51715;39.432;-77.518;2023-04-19T09:46:30;99743.26;;;6.19;39.48
65013;BME280;51715;39.432;-77.518;2023-04-19T09:49:31;99752.26;;;6.43;38.72
65013;BME280;51715;39.432;-77.518;2023-04-19T09:51:59;99750.78;;;5.28;41.25
65013;BME280;51715;39.432;-77.518;2023-04-19T09:54:27;99762.49;;;5.58;41.04
65013;BME280;51715;39.432;-77.518;2023-04-19T09:56:56;99762.49;;;5.70;40.73
65013;BME280;51715;39.432;-77.518;2023-04-19T09:59:24;99769.73;;;5.50;41.31
65013;BME280;51715;39.432;-77.518;2023-04-19T10:01:55;99771.35;;;5.73;40.34
65013;BME280;51715;39.432;-77.518;2023-04-19T10:04:24;99775.31;;;5.43;41.29
65013;BME280;51715;39.432;-77.518;2023-04-19T10:06:54;99780.17;;;5.61;40.69
65013;BME280;51715;39.432;-77.518;2023-04-19T10:09:22;99786.97;;;5.87;40.37
65013;BME280;51715;39.432;-77.518;2023-04-19T10:11:52;99791.70;;;6.15;40.38
65013;BME280;51715;39.432;-77.518;2023-04-19T10:14:23;99794.09;;;6.21;40.07
65013;BME280;51715;39.432;-77.518;2023-04-19T10:16:51;99800.18;;;5.99;39.96
65013;BME280;51715;39.432;-77.518;2023-04-19T10:19:21;99805.38;;;6.12;39.70
65013;BME280;51715;39.432;-77.518;2023-04-19T10:21:50;99812.80;;;5.60;40.77
65013;BME280;51715;39.432;-77.518;2023-04-19T10:24:19;99819.87;;;5.53;40.42
65013;BME280;51715;39.432;-77.518;2023-04-19T10:27:24;99826.97;;;4.76;42.78
65013;BME280;51715;39.432;-77.518;2023-04-19T10:29:57;99832.15;;;5.53;41.63
65013;BME280;51715;39.432;-77.518;2023-04-19T10:32:27;99833.75;;;5.47;41.59
65013;BME280;51715;39.432;-77.518;2023-04-19T10:35:00;99838.16;;;6.04;40.77
65013;BME280;51715;39.432;-77.518;2023-04-19T10:37:30;99842.84;;;4.98;42.53
65013;BME280;51715;39.432;-77.518;2023-04-19T10:39:58;99850.90;;;5.27;41.50
65013;BME280;51715;39.432;-77.518;2023-04-19T10:43:14;99858.44;;;5.25;41.42
65013;BME280;51715;39.432;-77.518;2023-04-19T10:45:43;99858.42;;;5.45;41.72
65013;BME280;51715;39.432;-77.518;2023-04-19T10:49:17;99863.04;;;4.92;42.82
65013;BME280;51715;39.432;-77.518;2023-04-19T10:51:50;99861.05;;;5.54;41.76
65013;BME280;51715;39.432;-77.518;2023-04-19T10:54:35;99866.96;;;5.73;40.54
65013;BME280;51715;39.432;-77.518;2023-04-19T10:57:07;99866.69;;;5.41;41.56
65013;BME280;51715;39.432;-77.518;2023-04-19T10:59:35;99867.02;;;5.67;40.80
65013;BME280;51715;39.432;-77.518;2023-04-19T11:02:25;99866.82;;;5.18;42.44
65013;BME280;51715;39.432;-77.518;2023-04-19T11:04:59;99871.33;;;5.54;41.22
65013;BME280;51715;39.432;-77.518;2023-04-19T11:07:27;99871.47;;;6.02;41.33
65013;BME280;51715;39.432;-77.518;2023-04-19T11:10:04;99873.77;;;6.00;40.54
65013;BME280;51715;39.432;-77.518;2023-04-19T11:12:33;99878.11;;;5.80;40.86
65013;BME280;51715;39.432;-77.518;2023-04-19T11:15:02;99884.18;;;6.15;40.37
65013;BME280;51715;39.432;-77.518;2023-04-19T11:17:32;99889.25;;;6.43;39.89
65013;BME280;51715;39.432;-77.518;2023-04-19T11:20:02;99889.47;;;6.13;40.32
65013;BME280;51715;39.432;-77.518;2023-04-19T11:22:32;99892.73;;;6.65;40.06
65013;BME280;51715;39.432;-77.518;2023-04-19T11:25:10;99898.11;;;6.34;40.30
65013;BME280;51715;39.432;-77.518;2023-04-19T11:27:39;99901.58;;;6.74;39.94
65013;BME280;51715;39.432;-77.518;2023-04-19T11:30:10;99904.91;;;6.81;39.16
65013;BME280;51715;39.432;-77.518;2023-04-19T11:32:44;99906.37;;;7.10;39.10
65013;BME280;51715;39.432;-77.518;2023-04-19T11:35:13;99910.16;;;7.29;38.56
65013;BME280;51715;39.432;-77.518;2023-04-19T11:37:41;99917.54;;;7.51;38.22
65013;BME280;51715;39.432;-77.518;2023-04-19T11:40:15;99921.18;;;7.82;38.11
65013;BME280;51715;39.432;-77.518;2023-04-19T11:42:43;99925.43;;;7.16;38.40
65013;BME280;51715;39.432;-77.518;2023-04-19T11:45:24;99933.17;;;7.78;37.58
65013;BME280;51715;39.432;-77.518;2023-04-19T11:47:54;99935.21;;;7.87;37.30
65013;BME280;51715;39.432;-77.518;2023-04-19T11:50:39;99935.65;;;8.08;37.13
65013;BME280;51715;39.432;-77.518;2023-04-19T11:53:11;99934.41;;;8.40;37.27
65013;BME280;51715;39.432;-77.518;2023-04-19T11:55:43;99936.59;;;8.68;36.45
65013;BME280;51715;39.432;-77.518;2023-04-19T11:58:29;99937.32;;;8.98;36.06
65013;BME280;51715;39.432;-77.518;2023-04-19T12:01:02;99936.13;;;8.31;38.04
65013;BME280;51715;39.432;-77.518;2023-04-19T12:03:31;99934.14;;;8.89;36.36
65013;BME280;51715;39.432;-77.518;2023-04-19T12:06:01;99932.56;;;9.20;36.03
65013;BME280;51715;39.432;-77.518;2023-04-19T12:08:32;99933.62;;;9.71;35.70
65013;BME280;51715;39.432;-77.518;2023-04-19T12:11:01;99933.71;;;9.97;35.12
65013;BME280;51715;39.432;-77.518;2023-04-19T12:13:30;99931.04;;;10.14;34.41
65013;BME280;51715;39.432;-77.518;2023-04-19T12:15:59;99934.64;;;10.56;33.51
65013;BME280;51715;39.432;-77.518;2023-04-19T12:18:40;99937.32;;;10.80;32.63
65013;BME280;51715;39.432;-77.518;2023-04-19T12:21:09;99940.64;;;10.85;32.92
65013;BME280;51715;39.432;-77.518;2023-04-19T12:23:38;99942.62;;;11.18;32.12
65013;BME280;51715;39.432;-77.518;2023-04-19T12:26:06;99943.96;;;11.82;31.73
65013;BME280;51715;39.432;-77.518;2023-04-19T12:28:34;99948.76;;;12.09;31.53
65013;BME280;51715;39.432;-77.518;2023-04-19T12:31:02;99947.58;;;11.72;31.69
65013;BME280;51715;39.432;-77.518;2023-04-19T12:33:31;99946.47;;;12.37;31.12
65013;BME280;51715;39.432;-77.518;2023-04-19T12:35:59;99955.42;;;12.33;30.63
65013;BME280;51715;39.432;-77.518;2023-04-19T12:38:27;99955.83;;;12.94;30.14
65013;BME280;51715;39.432;-77.518;2023-04-19T12:40:56;99954.85;;;12.93;29.76
65013;BME280;51715;39.432;-77.518;2023-04-19T12:43:25;99957.22;;;13.36;28.54
65013;BME280;51715;39.432;-77.518;2023-04-19T12:45:53;99956.94;;;13.61;28.55
65013;BME280;51715;39.432;-77.518;2023-04-19T12:48:21;99959.52;;;13.07;29.22
65013;BME280;51715;39.432;-77.518;2023-04-19T12:50:49;99964.64;;;12.67;30.38
65013;BME280;51715;39.432;-77.518;2023-04-19T12:53:18;99965.72;;;13.17;29.97
65013;BME280;51715;39.432;-77.518;2023-04-19T12:55:46;99959.17;;;14.10;28.45
65013;BME280;51715;39.432;-77.518;2023-04-19T12:58:14;99962.94;;;13.68;30.08
65013;BME280;51715;39.432;-77.518;2023-04-19T13:00:43;99959.54;;;13.91;29.93